Date,TemperatureHighF,TemperatureAvgF,TemperatureLowF,DewpointHighF,DewpointAvgF,DewpointLowF,HumidityHigh,HumidityAvg,HumidityLow,PressureMaxIn,PressureMinIn,WindSpeedMaxMPH,WindSpeedAvgMPH,GustSpeedMaxMPH,PrecipitationSumIn
2014-2-1,40.7,36.0,31.4,38.0,32.9,28.0,90,88,84,30.16,29.86,5,0,10,0.00
2014-2-2,38.0,29.0,25.1,35.0,26.4,22.0,91,89,86,30.27,29.94,8,1,9,0.00
2014-2-3,24.6,21.4,13.0,21.0,16.1,9.0,87,80,71,30.43,30.22,12,2,13,0.00
2014-2-4,27.7,19.3,9.8,21.0,14.6,6.0,90,82,60,30.50,30.12,6,1,10,0.00
2014-2-5,25.2,22.9,18.0,23.0,20.1,13.0,91,89,82,30.37,29.75,12,3,20,0.00
2014-2-6,22.2,14.6,4.7,15.0,9.1,-2.0,88,79,68,30.44,30.34,14,2,21,0.00
2014-2-7,13.6,5.5,-2.2,2.0,-2.4,-7.0,80,70,56,30.47,30.41,6,2,14,0.00
2014-2-8,20.3,13.0,4.8,14.0,3.7,-1.0,86,67,48,30.43,30.23,5,0,8,0.00
2014-2-9,25.4,20.4,17.6,22.0,16.5,14.0,89,84,75,30.22,30.03,8,1,14,0.00
2014-2-10,20.7,15.5,11.3,14.0,10.1,6.0,86,79,68,30.42,30.22,5,1,10,0.00
2014-2-11,17.7,9.2,0.9,11.0,4.2,-4.0,86,80,69,30.55,30.41,6,1,9,0.00
2014-2-12,29.9,13.2,-3.6,15.0,5.0,-9.0,87,71,44,30.53,30.14,3,0,6,0.00
2014-2-13,32.1,21.9,11.3,18.0,14.0,6.0,83,72,51,30.12,29.60,7,1,10,0.00
2014-2-14,30.9,26.5,22.6,26.0,20.8,17.0,87,79,70,29.80,29.50,9,2,18,0.00
2014-2-15,23.1,18.7,10.0,20.0,12.9,5.0,88,78,66,30.13,29.79,8,2,12,0.00
2014-2-16,25.2,16.5,7.9,20.0,12.6,3.0,88,84,79,30.42,30.02,6,0,10,0.00
2014-2-17,33.0,17.7,-1.7,30.0,10.1,-6.0,90,73,53,30.45,29.71,8,2,23,0.00
2014-2-18,41.0,32.8,25.6,31.0,27.1,23.0,91,80,62,30.09,29.73,12,3,17,0.00
2014-2-19,44.4,39.0,29.6,35.0,31.3,27.0,89,75,58,30.12,29.66,13,2,21,0.00
2014-2-20,52.1,38.2,27.4,47.0,34.5,25.0,91,87,72,30.12,29.55,6,1,10,0.00
2014-2-21,50.2,40.3,36.1,47.0,31.2,21.0,90,71,53,29.90,29.49,17,4,29,0.00
2014-2-22,43.4,38.7,33.7,34.0,26.9,21.0,89,64,46,30.04,29.83,17,3,23,0.00
2014-2-23,37.9,33.3,24.7,33.0,25.1,15.0,90,73,51,30.11,30.01,10,2,15,0.00
2014-2-24,26.9,23.6,21.3,16.0,14.3,13.0,74,68,59,30.21,30.09,13,4,17,0.00
2014-2-25,24.3,21.8,17.8,18.0,15.5,13.0,87,77,66,30.20,30.03,11,2,16,0.00
2014-2-26,20.6,15.5,12.3,17.0,7.3,3.0,89,70,55,30.16,29.77,9,2,16,0.00
2014-2-27,18.2,12.9,3.5,14.0,4.0,-5.0,87,68,50,30.25,29.64,10,3,26,0.00
2014-2-28,24.0,12.3,-2.6,9.0,1.7,-7.0,84,65,44,30.41,30.19,5,1,7,0.00